Time;durP1;ratioP1;P1;durP2;ratioP2;P2;SDS_P1;SDS_P2;PMS_P1;PMS_P2;Temp;Humidity;BMP_temperature;BMP_pressure;BME280_temperature;BME280_humidity;BME280_pressure;Samples;Min_cycle;Max_cycle;Signal;HPM_P1;HPM_P2
2021/07/21 00:02:10;;;;;;;4.38;3.42;;;17.80;99.90;;;;;;4957408;28;20201;-70
2021/07/21 00:04:36;;;;;;;4.05;3.00;;;17.80;99.90;;;;;;4947743;28;20185;-69
2021/07/21 00:07:02;;;;;;;4.55;3.08;;;17.80;99.90;;;;;;4958259;28;20730;-71
2021/07/21 00:09:27;;;;;;;3.25;2.22;;;17.80;99.90;;;;;;4953543;28;20239;-69
2021/07/21 00:14:39;;;;;;;4.13;2.88;;;17.80;99.90;;;;;;4952564;28;20240;-70
2021/07/21 00:17:16;;;;;;;4.10;2.55;;;17.80;99.90;;;;;;4953111;28;20186;-71
2021/07/21 00:22:27;;;;;;;4.13;2.70;;;17.80;99.90;;;;;;4950980;28;20189;-70
2021/07/21 00:24:53;;;;;;;4.25;3.38;;;17.80;99.90;;;;;;4954752;28;20537;-71
2021/07/21 00:27:18;;;;;;;3.78;2.53;;;17.70;99.90;;;;;;4955017;28;20212;-69
2021/07/21 00:29:44;;;;;;;4.38;2.80;;;17.70;99.90;;;;;;4957994;28;20197;-71
2021/07/21 00:32:09;;;;;;;2.88;2.50;;;17.70;99.90;;;;;;4957638;28;20200;-71
2021/07/21 00:34:35;;;;;;;2.97;2.20;;;17.70;99.90;;;;;;4951221;28;20684;-69
2021/07/21 00:37:01;;;;;;;4.18;2.40;;;17.70;99.90;;;;;;4959807;28;20217;-70
2021/07/21 00:39:26;;;;;;;3.33;2.90;;;17.70;99.90;;;;;;4961201;28;20565;-70
2021/07/21 00:41:52;;;;;;;3.70;2.42;;;17.70;99.90;;;;;;4956507;28;20185;-70
2021/07/21 00:44:18;;;;;;;2.97;2.45;;;17.70;99.90;;;;;;4957707;28;20221;-69
2021/07/21 00:46:43;;;;;;;3.80;2.75;;;17.70;99.90;;;;;;4954609;28;20683;-71
2021/07/21 00:49:09;;;;;;;3.67;3.13;;;17.60;99.90;;;;;;4953158;28;20196;-69
2021/07/21 00:51:34;;;;;;;3.83;2.75;;;17.70;99.90;;;;;;4954194;28;20282;-71
2021/07/21 00:54:01;;;;;;;4.10;3.03;;;17.70;99.90;;;;;;4956479;28;20184;-70
2021/07/21 00:56:28;;;;;;;2.65;2.20;;;17.60;99.90;;;;;;4962967;28;20196;-70
2021/07/21 00:58:53;;;;;;;3.65;2.50;;;17.60;99.90;;;;;;4953294;28;20181;-71
2021/07/21 01:01:19;;;;;;;2.13;1.65;;;17.60;99.90;;;;;;4953560;28;20208;-69
2021/07/21 01:03:45;;;;;;;3.00;2.10;;;17.60;99.90;;;;;;4955788;28;20212;-69
2021/07/21 01:06:10;;;;;;;4.18;2.60;;;17.50;99.90;;;;;;4957249;28;20236;-69
2021/07/21 01:08:36;;;;;;;3.42;2.45;;;17.50;99.90;;;;;;4948811;28;20217;-71
2021/07/21 01:11:07;;;;;;;3.63;2.78;;;17.40;99.90;;;;;;4959963;28;20271;-71
2021/07/21 01:14:01;;;;;;;3.92;2.45;;;17.50;99.90;;;;;;4964458;28;20644;-70
2021/07/21 01:16:31;;;;;;;3.25;2.40;;;17.40;99.90;;;;;;4952500;28;20292;-69
2021/07/21 01:19:10;;;;;;;3.60;2.45;;;17.40;99.90;;;;;;4956822;28;20193;-71
2021/07/21 01:22:14;;;;;;;3.30;2.67;;;17.40;99.90;;;;;;4953416;28;20173;-71
2021/07/21 01:25:01;;;;;;;3.70;2.47;;;17.40;99.90;;;;;;4956986;28;20321;-69
2021/07/21 01:27:44;;;;;;;2.97;2.30;;;17.50;99.90;;;;;;4963696;28;20220;-71
2021/07/21 01:30:24;;;;;;;3.75;2.38;;;17.50;99.90;;;;;;4958587;28;20669;-69
2021/07/21 01:32:54;;;;;;;2.80;1.83;;;17.50;99.90;;;;;;4954652;28;20261;-69
2021/07/21 01:35:23;;;;;;;3.30;2.42;;;17.40;99.90;;;;;;4952708;28;20181;-70
2021/07/21 01:37:56;;;;;;;3.33;2.40;;;17.40;99.90;;;;;;4962609;28;20185;-71
2021/07/21 01:40:43;;;;;;;6.43;3.35;;;17.50;99.90;;;;;;4955690;28;20213;-70
2021/07/21 01:43:15;;;;;;;3.45;2.47;;;17.50;99.90;;;;;;4959801;28;20595;-71
2021/07/21 01:45:45;;;;;;;3.22;2.15;;;17.40;99.90;;;;;;4952694;28;20217;-70
2021/07/21 01:48:13;;;;;;;4.28;2.60;;;17.50;99.90;;;;;;4956565;28;20288;-71
2021/07/21 01:50:39;;;;;;;4.20;2.47;;;17.50;99.90;;;;;;4963357;28;20210;-72
2021/07/21 01:53:07;;;;;;;6.78;3.13;;;17.50;99.90;;;;;;4955324;28;20237;-71
2021/07/21 01:55:33;;;;;;;4.25;2.72;;;17.50;99.90;;;;;;4958771;28;20268;-70
2021/07/21 01:58:01;;;;;;;4.50;2.80;;;17.40;99.90;;;;;;4955590;28;20267;-68
2021/07/21 02:00:28;;;;;;;4.90;2.85;;;17.40;99.90;;;;;;4960101;28;20272;-70
2021/07/21 02:02:55;;;;;;;4.15;2.65;;;17.40;99.90;;;;;;4954031;28;20200;-70
2021/07/21 02:05:22;;;;;;;3.72;2.70;;;17.40;99.90;;;;;;4962449;28;20248;-72
2021/07/21 02:07:49;;;;;;;3.92;2.63;;;17.40;99.90;;;;;;4955894;28;20245;-72
2021/07/21 02:10:18;;;;;;;3.83;2.63;;;17.30;99.90;;;;;;4957324;28;20198;-70
2021/07/21 02:12:45;;;;;;;3.70;2.15;;;17.30;99.90;;;;;;4957703;28;20177;-70
2021/07/21 02:15:11;;;;;;;3.03;2.60;;;17.30;99.90;;;;;;4957490;28;20203;-71
2021/07/21 02:17:41;;;;;;;4.25;3.15;;;17.30;99.90;;;;;;4956559;28;20192;-72
2021/07/21 02:20:09;;;;;;;4.05;2.97;;;17.30;99.90;;;;;;4957987;28;20201;-72
2021/07/21 02:22:36;;;;;;;4.18;3.05;;;17.20;99.90;;;;;;4958810;28;20182;-71
2021/07/21 02:25:02;;;;;;;4.82;2.42;;;17.20;99.90;;;;;;4955967;28;20185;-72
2021/07/21 02:27:28;;;;;;;4.53;2.78;;;17.10;99.90;;;;;;4954157;28;20320;-70
2021/07/21 02:29:54;;;;;;;4.53;2.67;;;17.20;99.90;;;;;;4955283;28;20642;-69
2021/07/21 02:32:29;;;;;;;3.90;2.85;;;17.10;99.90;;;;;;4952438;28;20182;-71
2021/07/21 02:34:54;;;;;;;5.28;3.03;;;17.20;99.90;;;;;;4953933;28;20177;-71
2021/07/21 02:37:20;;;;;;;5.15;3.22;;;17.20;99.90;;;;;;4953981;28;20185;-70
2021/07/21 02:39:49;;;;;;;4.90;2.95;;;17.20;99.90;;;;;;4950368;28;20194;-70
2021/07/21 02:42:15;;;;;;;3.75;2.70;;;17.10;99.90;;;;;;4961467;28;20189;-70
2021/07/21 02:44:42;;;;;;;3.65;2.72;;;17.20;99.90;;;;;;4954684;28;20400;-71
2021/07/21 02:47:08;;;;;;;4.78;2.90;;;17.10;99.90;;;;;;4955310;28;20275;-72
2021/07/21 02:49:34;;;;;;;4.38;2.90;;;17.10;99.90;;;;;;4958772;28;20212;-69
2021/07/21 02:52:09;;;;;;;3.75;3.05;;;17.10;99.90;;;;;;4957533;28;20189;-71
2021/07/21 02:55:14;;;;;;;4.93;3.30;;;17.10;99.90;;;;;;4958167;28;20275;-71
2021/07/21 02:58:18;;;;;;;4.00;2.67;;;17.20;99.90;;;;;;4958666;28;20189;-72
2021/07/21 03:00:45;;;;;;;4.45;2.65;;;17.10;99.90;;;;;;4953278;28;20227;-71
2021/07/21 03:03:14;;;;;;;4.50;3.30;;;17.00;99.90;;;;;;4958113;28;20546;-69
2021/07/21 03:05:40;;;;;;;3.97;3.00;;;17.00;99.90;;;;;;4958481;28;20177;-70
2021/07/21 03:08:06;;;;;;;6.53;3.67;;;17.00;99.90;;;;;;4960346;28;20240;-70
2021/07/21 03:10:38;;;;;;;3.75;2.70;;;17.10;99.90;;;;;;4959539;28;20197;-70
2021/07/21 03:13:16;;;;;;;4.13;2.83;;;17.10;99.90;;;;;;4956938;28;20182;-71
2021/07/21 03:15:45;;;;;;;3.70;3.05;;;17.10;99.90;;;;;;4959734;28;20170;-70
2021/07/21 03:18:14;;;;;;;3.65;2.88;;;17.00;99.90;;;;;;4956582;28;20189;-71
2021/07/21 03:20:43;;;;;;;6.03;3.63;;;17.10;99.90;;;;;;4959645;28;20209;-70
2021/07/21 03:23:12;;;;;;;5.18;2.90;;;17.00;99.90;;;;;;4954448;28;20173;-71
2021/07/21 03:25:39;;;;;;;5.00;3.35;;;17.10;99.90;;;;;;4956063;28;20637;-68
2021/07/21 03:28:07;;;;;;;7.85;3.95;;;17.10;99.90;;;;;;4947608;28;20192;-69
2021/07/21 03:30:35;;;;;;;3.90;2.83;;;17.00;99.90;;;;;;4959380;28;20238;-71
2021/07/21 03:33:03;;;;;;;6.05;3.28;;;17.00;99.90;;;;;;4960188;28;20185;-71
2021/07/21 03:35:33;;;;;;;5.40;3.25;;;17.10;99.90;;;;;;4952110;28;20248;-71
2021/07/21 03:38:01;;;;;;;4.93;2.70;;;17.10;99.90;;;;;;4953934;28;20186;-71
2021/07/21 03:40:28;;;;;;;5.22;3.28;;;17.10;99.90;;;;;;4953537;28;20279;-70
2021/07/21 03:42:55;;;;;;;4.47;2.92;;;17.10;99.90;;;;;;4957919;28;20693;-69
2021/07/21 03:45:24;;;;;;;3.45;3.08;;;17.00;99.90;;;;;;4960362;28;20632;-69
2021/07/21 03:47:51;;;;;;;5.45;3.03;;;17.00;99.90;;;;;;4955095;28;20218;-71
2021/07/21 03:50:23;;;;;;;4.40;2.88;;;17.00;99.90;;;;;;4963050;28;20572;-69
2021/07/21 03:52:50;;;;;;;5.03;3.20;;;17.00;99.90;;;;;;4954319;28;20538;-72
2021/07/21 03:55:19;;;;;;;4.03;2.60;;;17.00;99.90;;;;;;4951445;28;20881;-71
2021/07/21 03:57:45;;;;;;;5.13;3.38;;;17.00;99.90;;;;;;4957167;28;20192;-71
2021/07/21 04:00:17;;;;;;;6.25;2.95;;;17.00;99.90;;;;;;4955974;28;20257;-70
2021/07/21 04:02:49;;;;;;;4.20;3.33;;;17.00;99.90;;;;;;4952594;28;20173;-71
2021/07/21 04:05:16;;;;;;;5.05;2.78;;;17.00;99.90;;;;;;4950444;28;20197;-70
2021/07/21 04:07:45;;;;;;;5.63;3.60;;;17.10;99.90;;;;;;4955077;28;20213;-70
2021/07/21 04:10:11;;;;;;;3.97;3.30;;;17.00;99.90;;;;;;4956206;28;20640;-70
2021/07/21 04:12:43;;;;;;;4.38;3.25;;;17.10;99.90;;;;;;4954305;28;20316;-69
2021/07/21 04:15:11;;;;;;;4.75;2.95;;;17.10;99.90;;;;;;4957487;28;20629;-71
2021/07/21 04:17:37;;;;;;;5.60;3.42;;;17.20;99.90;;;;;;4962188;28;20221;-70
2021/07/21 04:20:05;;;;;;;4.68;2.95;;;17.10;99.90;;;;;;4959046;28;20345;-71
2021/07/21 04:22:33;;;;;;;4.53;2.80;;;17.20;99.90;;;;;;4947287;28;20193;-70
2021/07/21 04:24:59;;;;;;;5.63;3.17;;;17.20;99.90;;;;;;4952950;28;20177;-70
2021/07/21 04:27:26;;;;;;;7.90;3.63;;;17.10;99.90;;;;;;4957796;28;20664;-71
2021/07/21 04:29:53;;;;;;;5.15;3.40;;;17.10;99.90;;;;;;4959603;28;20201;-71
2021/07/21 04:32:23;;;;;;;4.05;2.80;;;17.10;99.90;;;;;;4955544;28;20194;-70
2021/07/21 04:34:50;;;;;;;5.60;3.65;;;17.20;99.90;;;;;;4957231;28;20628;-70
2021/07/21 04:37:18;;;;;;;5.95;2.97;;;17.20;99.90;;;;;;4960650;28;20274;-69
2021/07/21 04:39:45;;;;;;;3.88;3.15;;;17.30;99.90;;;;;;4953701;28;20657;-71
2021/07/21 04:42:12;;;;;;;3.83;3.15;;;17.20;99.90;;;;;;4955205;28;20185;-71
2021/07/21 04:44:40;;;;;;;5.30;3.80;;;17.30;99.90;;;;;;4960944;28;20189;-69
2021/07/21 04:47:06;;;;;;;4.78;3.17;;;17.20;99.90;;;;;;4955474;28;20208;-70
2021/07/21 04:49:37;;;;;;;4.47;2.88;;;17.30;99.90;;;;;;4956543;28;20296;-69
2021/07/21 04:52:05;;;;;;;5.72;3.25;;;17.30;99.90;;;;;;4953497;28;20170;-71
2021/07/21 04:54:32;;;;;;;4.13;2.78;;;17.30;99.90;;;;;;4953083;28;20190;-69
2021/07/21 04:56:58;;;;;;;3.97;2.70;;;17.40;99.90;;;;;;4954704;28;20642;-70
2021/07/21 04:59:25;;;;;;;5.18;3.50;;;17.40;99.90;;;;;;4957979;28;20236;-69
2021/07/21 05:01:51;;;;;;;5.20;3.10;;;17.50;99.90;;;;;;4955271;28;20276;-71
2021/07/21 05:04:17;;;;;;;5.38;2.85;;;17.50;99.90;;;;;;4955405;28;20189;-70
2021/07/21 05:06:46;;;;;;;3.97;3.00;;;17.50;99.90;;;;;;4952195;28;20657;-71
2021/07/21 05:09:12;;;;;;;4.20;2.90;;;17.50;99.90;;;;;;4953880;28;20190;-71
2021/07/21 05:11:39;;;;;;;8.45;3.20;;;17.60;99.90;;;;;;4946716;28;20190;-71
2021/07/21 05:14:06;;;;;;;4.97;3.08;;;17.60;99.90;;;;;;4955693;28;20173;-69
2021/07/21 05:16:32;;;;;;;6.00;3.65;;;17.70;99.90;;;;;;4959552;28;21023;-71
2021/07/21 05:18:58;;;;;;;4.82;3.28;;;17.70;99.90;;;;;;4960287;28;20220;-71
2021/07/21 05:21:24;;;;;;;4.32;2.80;;;17.70;99.90;;;;;;4962784;28;20538;-70
2021/07/21 05:23:50;;;;;;;4.45;2.97;;;17.70;99.90;;;;;;4959014;28;20196;-71
2021/07/21 05:26:16;;;;;;;5.05;3.15;;;17.80;99.90;;;;;;4962342;28;20671;-71
2021/07/21 05:28:42;;;;;;;5.47;3.30;;;17.80;99.90;;;;;;4963240;28;20185;-70
2021/07/21 05:31:09;;;;;;;4.63;3.15;;;17.90;99.90;;;;;;4958769;28;20248;-70
2021/07/21 05:33:35;;;;;;;5.22;3.35;;;17.90;99.90;;;;;;4956683;28;20257;-70
2021/07/21 05:36:03;;;;;;;5.00;3.33;;;18.00;99.90;;;;;;4956660;28;20186;-71
2021/07/21 05:38:29;;;;;;;5.05;2.63;;;18.10;99.90;;;;;;4959011;28;20196;-70
2021/07/21 05:40:54;;;;;;;4.43;3.35;;;18.20;99.90;;;;;;4954353;28;20940;-69
2021/07/21 05:43:22;;;;;;;4.50;3.22;;;18.30;99.90;;;;;;4956309;28;20545;-69
2021/07/21 05:45:48;;;;;;;4.03;2.50;;;18.30;99.90;;;;;;4954827;28;20220;-70
2021/07/21 05:48:14;;;;;;;5.43;3.47;;;18.30;99.90;;;;;;4958489;28;20201;-70
2021/07/21 05:50:39;;;;;;;4.63;3.08;;;18.30;99.90;;;;;;4958326;28;20229;-71
2021/07/21 05:53:05;;;;;;;5.55;3.40;;;18.40;99.90;;;;;;4958069;28;20185;-70
2021/07/21 05:55:31;;;;;;;4.75;2.92;;;18.50;99.90;;;;;;4961363;28;20185;-71
2021/07/21 05:57:57;;;;;;;5.13;3.50;;;18.60;99.90;;;;;;4957326;28;20564;-70
2021/07/21 06:00:23;;;;;;;4.43;3.20;;;18.60;99.90;;;;;;4958251;28;20231;-71
2021/07/21 06:02:49;;;;;;;6.15;3.53;;;18.70;99.90;;;;;;4953510;28;20217;-70
2021/07/21 06:05:16;;;;;;;5.35;3.50;;;18.90;99.90;;;;;;4960662;28;20220;-68
2021/07/21 06:07:41;;;;;;;4.88;2.70;;;18.90;99.90;;;;;;4955555;28;20611;-70
2021/07/21 06:10:08;;;;;;;7.00;3.85;;;19.00;99.90;;;;;;4956482;28;20259;-70
2021/07/21 06:12:34;;;;;;;5.65;3.38;;;19.00;99.90;;;;;;4955271;28;20257;-71
2021/07/21 06:15:01;;;;;;;4.38;3.22;;;19.10;99.90;;;;;;4957471;28;20280;-72
2021/07/21 06:17:26;;;;;;;4.18;2.78;;;19.20;99.90;;;;;;4951721;28;20744;-70
2021/07/21 06:19:52;;;;;;;4.57;3.00;;;19.20;99.90;;;;;;4957717;28;20240;-70
2021/07/21 06:22:18;;;;;;;6.07;3.47;;;19.30;99.90;;;;;;4954933;28;20185;-71
2021/07/21 06:24:45;;;;;;;5.82;2.88;;;19.50;99.90;;;;;;4957660;28;20353;-71
2021/07/21 06:27:11;;;;;;;5.65;3.25;;;19.50;99.90;;;;;;4960052;28;20693;-69
2021/07/21 06:29:36;;;;;;;6.10;3.67;;;19.60;99.90;;;;;;4963994;28;20340;-71
2021/07/21 06:32:02;;;;;;;4.75;3.22;;;19.60;99.90;;;;;;4961082;28;20201;-69
2021/07/21 06:34:28;;;;;;;4.28;3.13;;;19.60;99.90;;;;;;4961153;28;20329;-72
2021/07/21 06:36:53;;;;;;;4.22;2.85;;;19.70;99.90;;;;;;4957363;28;20232;-71
2021/07/21 06:39:19;;;;;;;5.40;3.55;;;19.60;99.90;;;;;;4958812;28;20303;-71
2021/07/21 06:41:45;;;;;;;4.53;3.75;;;19.50;99.90;;;;;;4958109;28;20187;-71
2021/07/21 06:44:10;;;;;;;5.57;3.75;;;19.60;99.90;;;;;;4954378;28;20185;-69
2021/07/21 06:46:36;;;;;;;5.80;3.40;;;19.80;99.90;;;;;;4958729;28;20229;-69
2021/07/21 06:49:02;;;;;;;5.45;3.35;;;19.80;99.90;;;;;;4954033;28;20201;-71
2021/07/21 06:51:27;;;;;;;5.25;2.90;;;19.80;99.90;;;;;;4953494;28;20244;-70
2021/07/21 06:53:54;;;;;;;5.55;3.42;;;19.70;99.90;;;;;;4940738;28;20266;-68
2021/07/21 06:56:19;;;;;;;4.43;3.50;;;19.70;99.90;;;;;;4951551;28;20192;-70
2021/07/21 06:58:45;;;;;;;5.13;3.38;;;19.70;99.90;;;;;;4956308;28;20185;-68
2021/07/21 07:01:11;;;;;;;6.18;3.42;;;19.70;99.90;;;;;;4949304;28;20735;-70
2021/07/21 07:03:36;;;;;;;4.43;2.97;;;19.70;99.90;;;;;;4957113;28;20451;-70
2021/07/21 07:06:03;;;;;;;4.57;2.92;;;19.80;99.90;;;;;;4955525;28;20264;-69
2021/07/21 07:08:29;;;;;;;6.32;3.08;;;19.90;99.90;;;;;;4960884;28;20293;-69
2021/07/21 07:10:55;;;;;;;6.00;2.92;;;19.90;99.90;;;;;;4957146;28;20584;-69
2021/07/21 07:13:21;;;;;;;5.57;3.17;;;20.10;99.90;;;;;;4951391;28;20185;-70
2021/07/21 07:15:49;;;;;;;6.35;3.50;;;20.00;99.90;;;;;;4958099;28;20200;-69
2021/07/21 07:18:15;;;;;;;4.97;3.20;;;20.00;99.90;;;;;;4962842;28;20208;-69
2021/07/21 07:20:42;;;;;;;5.20;3.45;;;19.90;99.90;;;;;;4954173;28;20197;-69
2021/07/21 07:23:08;;;;;;;5.78;3.33;;;19.80;99.90;;;;;;4953163;28;20207;-69
2021/07/21 07:25:34;;;;;;;6.35;3.30;;;19.90;99.90;;;;;;4955627;28;20181;-68
2021/07/21 07:27:59;;;;;;;5.35;3.45;;;19.90;99.90;;;;;;4958409;28;20216;-70
2021/07/21 07:30:25;;;;;;;6.18;3.38;;;20.00;99.90;;;;;;4954862;28;20648;-71
2021/07/21 07:32:51;;;;;;;5.25;3.10;;;20.00;99.90;;;;;;4955507;28;20188;-69
2021/07/21 07:35:16;;;;;;;7.95;3.40;;;20.00;99.90;;;;;;4950027;28;20190;-70
2021/07/21 07:37:42;;;;;;;4.70;2.95;;;20.00;99.90;;;;;;4948960;28;20209;-69
2021/07/21 07:40:08;;;;;;;5.68;3.80;;;20.00;99.90;;;;;;4954854;28;21003;-69
2021/07/21 07:42:35;;;;;;;6.13;3.00;;;20.10;99.90;;;;;;4955618;28;20198;-70
2021/07/21 07:45:01;;;;;;;6.30;3.58;;;20.10;99.90;;;;;;4961290;28;20514;-70
2021/07/21 07:47:27;;;;;;;4.88;3.17;;;20.20;99.90;;;;;;4955649;28;20244;-69
2021/07/21 07:49:52;;;;;;;5.45;3.08;;;20.30;99.90;;;;;;4957654;28;20225;-70
2021/07/21 07:52:18;;;;;;;4.38;2.90;;;20.50;99.90;;;;;;4953999;28;20188;-71
2021/07/21 07:54:44;;;;;;;4.93;3.10;;;20.50;99.90;;;;;;4952567;28;20184;-69
2021/07/21 07:57:11;;;;;;;5.85;3.72;;;20.50;99.90;;;;;;4951210;28;20263;-70
2021/07/21 07:59:37;;;;;;;4.90;3.30;;;20.60;99.90;;;;;;4952299;28;20271;-71
2021/07/21 08:02:03;;;;;;;4.90;2.95;;;20.50;99.90;;;;;;4957328;28;20193;-68
2021/07/21 08:04:29;;;;;;;5.60;3.05;;;20.60;99.90;;;;;;4956453;28;20189;-70
2021/07/21 08:06:55;;;;;;;4.28;2.75;;;20.70;99.90;;;;;;4949134;28;20232;-67
2021/07/21 08:09:20;;;;;;;4.32;2.95;;;20.80;99.90;;;;;;4945684;28;20674;-70
2021/07/21 08:11:52;;;;;;;4.68;3.40;;;21.00;99.90;;;;;;4950667;28;20182;-70
2021/07/21 08:14:18;;;;;;;4.68;3.28;;;21.20;99.90;;;;;;4952736;28;20188;-70
2021/07/21 08:16:45;;;;;;;4.07;3.10;;;21.30;99.90;;;;;;4945380;28;20268;-71
2021/07/21 08:19:11;;;;;;;5.55;3.30;;;21.40;99.90;;;;;;4959064;28;20187;-71
2021/07/21 08:21:37;;;;;;;5.18;3.42;;;21.50;99.90;;;;;;4952500;28;20349;-70
2021/07/21 08:24:04;;;;;;;5.35;3.83;;;21.50;99.90;;;;;;4955052;28;20255;-70
2021/07/21 08:26:30;;;;;;;6.85;3.28;;;21.50;99.90;;;;;;4944568;28;20213;-70
2021/07/21 08:28:55;;;;;;;5.68;3.22;;;21.40;99.90;;;;;;4956846;28;20189;-70
2021/07/21 08:31:22;;;;;;;5.80;3.53;;;21.40;99.90;;;;;;4956609;28;20181;-66
2021/07/21 08:33:48;;;;;;;4.38;2.75;;;21.60;99.90;;;;;;4954837;28;20308;-67
2021/07/21 08:36:16;;;;;;;5.38;3.17;;;21.90;99.90;;;;;;4941034;28;20250;-68
2021/07/21 08:38:43;;;;;;;5.03;3.40;;;22.00;99.90;;;;;;4944939;28;20183;-68
2021/07/21 08:41:11;;;;;;;4.32;3.08;;;22.20;99.90;;;;;;4952597;28;20212;-68
2021/07/21 08:43:38;;;;;;;6.10;3.70;;;22.30;99.90;;;;;;4953654;28;20248;-69
2021/07/21 08:46:04;;;;;;;3.88;2.33;;;22.30;99.90;;;;;;4955523;28;20177;-68
2021/07/21 08:48:30;;;;;;;5.03;2.97;;;22.30;99.90;;;;;;4957789;28;20200;-68
2021/07/21 08:50:57;;;;;;;3.85;3.03;;;22.40;99.90;;;;;;4958946;28;20252;-68
2021/07/21 08:53:23;;;;;;;5.10;3.55;;;22.60;99.90;;;;;;4958927;28;20264;-67
2021/07/21 08:55:49;;;;;;;6.18;3.45;;;22.50;99.90;;;;;;4951037;28;20190;-67
2021/07/21 08:58:19;;;;;;;3.88;2.92;;;22.50;99.90;;;;;;4958339;28;20708;-69
2021/07/21 09:00:45;;;;;;;4.65;3.08;;;22.60;99.90;;;;;;4978768;28;20192;-68
2021/07/21 09:03:12;;;;;;;4.28;2.95;;;22.60;99.90;;;;;;4963291;28;20236;-69
2021/07/21 09:05:38;;;;;;;5.60;3.00;;;22.70;99.90;;;;;;4961024;28;21086;-69
2021/07/21 09:08:04;;;;;;;3.45;2.60;;;22.80;99.90;;;;;;4950315;28;20211;-67
2021/07/21 09:10:32;;;;;;;3.53;2.13;;;22.80;99.90;;;;;;4957648;28;20231;-69
2021/07/21 09:13:01;;;;;;;5.65;2.90;;;22.70;99.90;;;;;;4951016;28;20193;-68
2021/07/21 09:15:27;;;;;;;3.30;2.40;;;22.80;99.90;;;;;;4958332;28;20394;-71
2021/07/21 09:18:07;;;;;;;4.00;2.45;;;22.90;99.90;;;;;;4960078;28;20196;-68
2021/07/21 09:20:36;;;;;;;4.75;2.35;;;23.10;99.90;;;;;;4959917;28;20209;-67
2021/07/21 09:23:02;;;;;;;3.65;2.00;;;23.20;99.90;;;;;;4959207;28;20188;-67
2021/07/21 09:25:30;;;;;;;4.15;2.22;;;23.40;99.90;;;;;;4961774;28;20628;-70
2021/07/21 09:31:34;;;;;;;3.75;2.17;;;23.50;99.90;;;;;;5146805;23;20248;-70
2021/07/21 09:34:11;;;;;;;3.30;1.92;;;23.70;99.90;;;;;;4954199;28;20193;-70
2021/07/21 09:36:37;;;;;;;2.72;1.80;;;23.60;99.90;;;;;;4956778;28;20284;-70
2021/07/21 09:39:03;;;;;;;3.72;2.33;;;23.80;99.90;;;;;;4959382;28;20256;-72
2021/07/21 09:41:29;;;;;;;4.07;3.10;;;23.70;99.90;;;;;;4956579;28;20256;-70
2021/07/21 09:44:03;;;;;;;4.93;1.77;;;23.70;99.90;;;;;;4962050;28;20181;-71
2021/07/21 09:46:33;;;;;;;3.67;1.98;;;23.80;99.90;;;;;;4956882;28;20303;-70
2021/07/21 09:48:59;;;;;;;2.85;1.90;;;23.60;99.90;;;;;;4953573;28;20549;-71
2021/07/21 09:51:34;;;;;;;3.00;2.20;;;23.50;99.90;;;;;;4954513;28;20186;-71
2021/07/21 09:54:14;;;;;;;2.65;2.00;;;23.20;99.90;;;;;;4953643;28;20189;-70
2021/07/21 09:56:40;;;;;;;2.80;1.33;;;23.10;99.90;;;;;;4952880;28;20207;-71
2021/07/21 09:59:21;;;;;;;2.15;1.85;;;23.20;99.90;;;;;;4958064;28;20189;-71
2021/07/21 10:01:47;;;;;;;2.55;1.73;;;23.60;99.90;;;;;;4959425;28;20779;-72
2021/07/21 10:04:12;;;;;;;3.92;2.13;;;24.20;99.90;;;;;;4957309;28;20272;-70
2021/07/21 10:06:39;;;;;;;2.05;1.60;;;24.80;99.90;;;;;;4954936;28;20300;-72
2021/07/21 10:09:06;;;;;;;3.13;1.33;;;24.70;99.90;;;;;;4960542;28;20438;-70
2021/07/21 10:11:42;;;;;;;3.20;2.45;;;24.50;99.90;;;;;;4962910;28;20258;-72
2021/07/21 10:14:14;;;;;;;2.42;1.33;;;24.30;99.90;;;;;;4954908;28;20177;-69
2021/07/21 10:16:48;;;;;;;2.78;1.92;;;23.90;99.90;;;;;;4954885;28;20196;-70
2021/07/21 10:19:19;;;;;;;2.13;1.88;;;23.70;99.90;;;;;;4954736;28;21558;-71
2021/07/21 10:22:11;;;;;;;4.18;2.40;;;23.40;99.90;;;;;;4954374;28;20218;-70
2021/07/21 10:24:38;;;;;;;4.50;1.73;;;23.10;99.90;;;;;;4955521;28;20223;-70
2021/07/21 10:27:04;;;;;;;3.13;1.90;;;23.00;99.90;;;;;;4954847;28;20204;-70
2021/07/21 10:29:30;;;;;;;3.45;2.25;;;23.00;99.90;;;;;;4954403;28;20280;-70
2021/07/21 10:31:56;;;;;;;3.45;1.95;;;23.00;99.90;;;;;;4953967;28;20232;-71
2021/07/21 10:34:23;;;;;;;3.47;2.00;;;22.90;99.90;;;;;;4958894;28;20229;-70
2021/07/21 10:36:50;;;;;;;2.05;1.75;;;22.90;99.90;;;;;;4957739;28;20213;-70
2021/07/21 10:39:34;;;;;;;3.25;2.25;;;23.00;99.90;;;;;;4953492;28;20216;-70
2021/07/21 10:42:06;;;;;;;4.85;2.25;;;23.10;99.90;;;;;;4954716;28;20207;-71
2021/07/21 10:44:32;;;;;;;4.47;2.22;;;23.10;99.90;;;;;;4955735;28;20189;-70
2021/07/21 10:46:59;;;;;;;3.35;2.00;;;23.10;99.90;;;;;;4951778;28;20224;-69
2021/07/21 10:49:35;;;;;;;3.10;2.25;;;23.20;99.90;;;;;;4954805;28;20288;-69
2021/07/21 10:55:41;;;;;;;2.58;1.88;;;23.10;99.90;;;;;;4961345;28;20177;-67
2021/07/21 11:00:36;;;;;;;2.53;1.85;;;22.90;99.90;;;;;;4954504;28;20284;-67
2021/07/21 11:03:25;;;;;;;3.92;1.80;;;22.70;99.90;;;;;;4963834;28;20178;-66
2021/07/21 11:06:10;;;;;;;3.17;2.08;;;22.50;99.90;;;;;;4951722;28;20220;-66
2021/07/21 11:08:47;;;;;;;3.47;1.83;;;22.40;99.90;;;;;;4958132;28;20193;-66
2021/07/21 11:11:22;;;;;;;3.60;1.80;;;22.40;99.90;;;;;;4958747;28;20206;-67
2021/07/21 11:13:56;;;;;;;3.58;1.95;;;22.50;99.90;;;;;;4954350;28;20176;-66
2021/07/21 11:16:41;;;;;;;2.17;1.33;;;22.40;99.90;;;;;;4957036;28;20188;-66
2021/07/21 11:19:33;;;;;;;4.50;2.15;;;22.20;99.90;;;;;;4957013;28;20185;-66
2021/07/21 11:22:03;;;;;;;3.42;1.95;;;22.30;99.90;;;;;;4957257;28;20195;-70
2021/07/21 11:24:30;;;;;;;4.10;2.15;;;22.30;99.90;;;;;;4955012;28;20316;-69
2021/07/21 11:26:56;;;;;;;2.55;1.95;;;22.20;99.90;;;;;;4952916;28;20197;-70
2021/07/21 11:29:25;;;;;;;2.90;2.20;;;22.10;99.90;;;;;;4953299;28;20204;-70
2021/07/21 11:31:54;;;;;;;2.60;1.70;;;22.20;99.90;;;;;;4942644;28;20196;-69
2021/07/21 11:34:29;;;;;;;2.53;1.58;;;22.20;99.90;;;;;;4956270;28;20564;-69
2021/07/21 11:36:56;;;;;;;2.35;1.60;;;22.40;99.90;;;;;;4951038;28;20185;-69
2021/07/21 11:39:42;;;;;;;2.50;2.28;;;22.50;99.90;;;;;;4947363;28;20750;-70
2021/07/21 11:42:23;;;;;;;3.75;2.00;;;22.80;99.90;;;;;;4957144;28;20185;-69
2021/07/21 11:44:51;;;;;;;3.63;2.10;;;23.00;99.90;;;;;;4952165;28;20193;-71
2021/07/21 11:47:20;;;;;;;2.88;1.85;;;23.20;99.90;;;;;;4959145;28;20212;-70
2021/07/21 11:49:51;;;;;;;3.53;1.90;;;23.40;99.90;;;;;;4949633;28;20834;-70
2021/07/21 11:52:18;;;;;;;4.78;2.00;;;23.40;99.90;;;;;;4958172;28;20192;-70
2021/07/21 11:54:44;;;;;;;2.30;1.80;;;23.40;99.90;;;;;;4951055;28;20247;-70
2021/07/21 11:57:10;;;;;;;2.03;1.42;;;23.20;99.90;;;;;;4954434;28;20190;-69
2021/07/21 11:59:38;;;;;;;5.30;2.25;;;23.10;99.90;;;;;;4953739;28;20287;-71
2021/07/21 12:02:10;;;;;;;3.08;2.25;;;23.00;99.90;;;;;;4944061;28;20189;-69
2021/07/21 12:04:41;;;;;;;3.70;2.10;;;23.00;99.90;;;;;;4945064;28;21094;-71
2021/07/21 12:07:08;;;;;;;3.05;2.10;;;22.80;99.90;;;;;;4954068;28;20200;-70
2021/07/21 12:09:43;;;;;;;2.70;2.17;;;22.60;99.90;;;;;;4955970;28;20197;-69
2021/07/21 12:12:10;;;;;;;3.08;2.38;;;22.40;99.90;;;;;;4947695;28;20552;-70
2021/07/21 12:14:38;;;;;;;3.15;2.00;;;22.20;99.90;;;;;;4957285;28;20189;-69
2021/07/21 12:17:09;;;;;;;3.50;2.42;;;22.10;99.90;;;;;;4943643;29;20268;-70
2021/07/21 12:19:40;;;;;;;3.80;2.40;;;21.90;99.90;;;;;;4954555;28;20693;-67
2021/07/21 12:22:11;;;;;;;3.38;2.28;;;21.80;99.90;;;;;;4949671;28;20204;-68
2021/07/21 12:24:49;;;;;;;3.42;2.33;;;21.80;99.90;;;;;;4956635;28;20276;-70
2021/07/21 12:27:28;;;;;;;4.20;2.30;;;21.70;99.90;;;;;;4952700;28;20300;-69
2021/07/21 12:29:56;;;;;;;3.50;2.08;;;21.50;99.90;;;;;;4957225;28;20262;-70
2021/07/21 12:32:21;;;;;;;3.33;2.22;;;21.50;99.90;;;;;;4951889;28;20181;-69
2021/07/21 12:34:55;;;;;;;4.40;2.92;;;21.40;99.90;;;;;;4950149;28;20173;-68
2021/07/21 12:37:23;;;;;;;2.85;1.80;;;21.40;99.90;;;;;;4953247;28;20838;-69
2021/07/21 12:39:50;;;;;;;3.40;2.10;;;21.30;99.90;;;;;;4954914;28;20209;-69
2021/07/21 12:42:19;;;;;;;4.43;2.35;;;21.30;99.90;;;;;;4956803;28;20185;-69
2021/07/21 12:44:50;;;;;;;3.30;2.42;;;21.20;99.90;;;;;;4953919;28;20324;-70
2021/07/21 12:47:22;;;;;;;4.68;2.20;;;21.10;99.90;;;;;;4952668;28;20223;-70
2021/07/21 12:50:01;;;;;;;3.30;2.15;;;21.00;99.90;;;;;;4950479;28;20198;-69
2021/07/21 12:52:28;;;;;;;4.35;3.25;;;21.00;99.90;;;;;;4950495;28;20189;-70
2021/07/21 12:54:56;;;;;;;5.13;2.78;;;21.00;99.90;;;;;;4943987;28;20823;-71
2021/07/21 12:57:43;;;;;;;3.97;2.42;;;21.00;99.90;;;;;;4950671;28;20190;-69
2021/07/21 13:00:15;;;;;;;3.13;2.58;;;21.00;99.90;;;;;;4955921;28;21184;-68
2021/07/21 13:02:41;;;;;;;3.92;2.50;;;21.20;99.90;;;;;;4956397;28;20189;-70
2021/07/21 13:05:27;;;;;;;2.92;2.25;;;21.20;99.90;;;;;;4946931;28;20251;-70
2021/07/21 13:08:01;;;;;;;4.70;2.75;;;21.40;99.90;;;;;;4947078;28;20615;-70
2021/07/21 13:10:28;;;;;;;7.22;2.55;;;21.60;99.90;;;;;;4957027;28;20247;-70
2021/07/21 13:12:55;;;;;;;3.85;2.75;;;21.70;99.90;;;;;;4957046;28;20637;-68